Time;durP1;ratioP1;P1;durP2;ratioP2;P2;SDS_P1;SDS_P2;PMS_P1;PMS_P2;Temp;Humidity;BMP_temperature;BMP_pressure;BME280_temperature;BME280_humidity;BME280_pressure;Samples;Min_cycle;Max_cycle;Signal;HPM_P1;HPM_P2
2022/10/23 00:01:51;;;;;;;3.38;2.17;;;;;;;10.23;100.00;95856.41;6335328;22;20448;-65
2022/10/23 00:04:21;;;;;;;3.53;2.10;;;;;;;10.20;100.00;95846.16;6335527;22;19999;-66
2022/10/23 00:06:48;;;;;;;4.53;2.83;;;;;;;10.19;100.00;95849.75;6334882;22;20009;-66
2022/10/23 00:09:16;;;;;;;7.40;2.88;;;;;;;10.20;100.00;95848.78;6335039;22;19999;-66
2022/10/23 00:11:43;;;;;;;3.70;2.55;;;;;;;10.20;100.00;95858.50;6335406;22;20001;-65
2022/10/23 00:14:09;;;;;;;2.72;2.30;;;;;;;10.23;100.00;95853.78;6335113;22;20048;-66
2022/10/23 00:16:35;;;;;;;10.23;2.30;;;;;;;10.23;100.00;95871.38;6334900;22;20006;-66
2022/10/23 00:19:00;;;;;;;6.13;2.60;;;;;;;10.22;100.00;95865.28;6335391;22;19994;-64
2022/10/23 00:21:26;;;;;;;7.45;2.35;;;;;;;10.21;100.00;95868.88;6335108;22;20005;-67
2022/10/23 00:23:52;;;;;;;7.05;2.40;;;;;;;10.21;100.00;95865.44;6335107;22;19995;-67
2022/10/23 00:26:18;;;;;;;7.03;2.50;;;;;;;10.15;100.00;95869.44;6335290;22;20501;-66
2022/10/23 00:28:47;;;;;;;5.45;2.45;;;;;;;10.07;100.00;95872.72;6335372;22;20417;-67
2022/10/23 00:31:13;;;;;;;3.03;2.28;;;;;;;10.08;100.00;95868.31;6334727;22;20475;-66
2022/10/23 00:33:39;;;;;;;2.63;2.42;;;;;;;10.05;100.00;95853.63;6334733;22;20573;-67
2022/10/23 00:36:07;;;;;;;5.45;2.88;;;;;;;10.03;100.00;95845.84;6335331;22;20034;-69
2022/10/23 00:38:33;;;;;;;9.25;3.38;;;;;;;10.01;100.00;95842.53;6334730;22;20017;-69
2022/10/23 00:40:59;;;;;;;4.00;3.25;;;;;;;10.04;100.00;95842.25;6334764;22;19999;-66
2022/10/23 00:43:28;;;;;;;5.45;4.25;;;;;;;10.11;100.00;95852.25;6334810;22;20498;-67
2022/10/23 00:45:53;;;;;;;9.98;5.20;;;;;;;10.12;100.00;95841.56;6334895;22;20318;-66
2022/10/23 00:48:20;;;;;;;11.00;3.85;;;;;;;10.10;100.00;95846.16;6307454;22;20024;-66
2022/10/23 00:50:47;;;;;;;7.80;3.83;;;;;;;10.13;100.00;95837.16;6335010;22;20048;-66
2022/10/23 00:53:13;;;;;;;13.65;6.20;;;;;;;10.06;100.00;95841.28;6334806;22;19999;-66
2022/10/23 00:55:44;;;;;;;14.07;5.43;;;;;;;10.03;100.00;95840.59;6334495;22;19999;-66
2022/10/23 00:58:10;;;;;;;11.95;4.57;;;;;;;10.01;100.00;95847.78;6335080;22;19999;-66
2022/10/23 01:00:44;;;;;;;13.05;4.90;;;;;;;10.00;100.00;95843.50;6333421;22;20070;-64
2022/10/23 01:03:09;;;;;;;9.55;3.10;;;;;;;10.18;100.00;95837.56;6334979;22;20021;-64
2022/10/23 01:05:44;;;;;;;7.85;2.50;;;;;;;10.13;100.00;95835.34;6334627;22;20074;-64
2022/10/23 01:08:18;;;;;;;4.35;2.30;;;;;;;10.12;100.00;95832.88;6334092;22;20010;-64
2022/10/23 01:11:02;;;;;;;7.22;2.80;;;;;;;10.06;100.00;95831.59;6334616;22;19999;-64
2022/10/23 01:13:38;;;;;;;9.10;4.40;;;;;;;9.99;100.00;95826.03;6334674;22;19998;-64
2022/10/23 01:16:06;;;;;;;7.30;4.60;;;;;;;9.95;100.00;95816.75;6334592;22;19994;-69
2022/10/23 01:18:38;;;;;;;5.85;3.90;;;;;;;9.95;100.00;95827.28;6334568;22;20421;-58
2022/10/23 01:21:27;;;;;;;9.38;5.13;;;;;;;9.92;100.00;95810.94;6334329;22;20052;-59
2022/10/23 01:24:03;;;;;;;9.82;3.40;;;;;;;9.91;100.00;95810.13;6334592;22;20005;-59
2022/10/23 01:26:40;;;;;;;8.18;3.50;;;;;;;9.95;100.00;95808.88;6334580;22;20072;-59
2022/10/23 01:29:21;;;;;;;6.88;3.13;;;;;;;9.95;100.00;95806.25;6334052;22;20345;-59
2022/10/23 01:31:49;;;;;;;7.97;3.30;;;;;;;9.96;100.00;95810.53;6334729;22;20481;-58
2022/10/23 01:34:21;;;;;;;12.75;3.67;;;;;;;9.93;100.00;95810.81;6334307;22;20029;-67
2022/10/23 01:36:49;;;;;;;8.00;3.60;;;;;;;9.88;100.00;95802.50;6334535;22;20345;-69
2022/10/23 01:39:23;;;;;;;6.50;3.10;;;;;;;9.89;100.00;95812.06;6334318;22;20083;-69
2022/10/23 01:42:02;;;;;;;3.40;3.08;;;;;;;9.91;100.00;95804.00;6334447;22;19998;-69
2022/10/23 01:44:37;;;;;;;5.85;2.22;;;;;;;9.90;100.00;95811.09;6334349;22;20455;-69
2022/10/23 01:47:05;;;;;;;5.93;2.10;;;;;;;9.89;100.00;95804.97;6334528;22;19999;-69
2022/10/23 01:49:32;;;;;;;6.55;2.60;;;;;;;9.89;100.00;95810.25;6334539;22;20074;-69
2022/10/23 01:52:01;;;;;;;4.70;2.88;;;;;;;9.91;100.00;95806.66;6334321;22;20010;-70
2022/10/23 01:54:34;;;;;;;6.13;2.90;;;;;;;9.87;100.00;95809.53;6334164;22;20002;-67
2022/10/23 01:57:02;;;;;;;4.03;2.60;;;;;;;9.86;100.00;95815.78;6334636;22;20066;-69
2022/10/23 01:59:35;;;;;;;3.38;2.28;;;;;;;9.89;100.00;95812.06;6333997;22;20082;-70
2022/10/23 02:02:03;;;;;;;7.90;2.50;;;;;;;9.88;100.00;95813.03;6334568;22;20029;-69
2022/10/23 02:04:37;;;;;;;3.80;2.60;;;;;;;9.89;100.00;95806.78;6334062;22;20003;-69
2022/10/23 02:07:03;;;;;;;2.10;2.00;;;;;;;9.86;100.00;95805.25;6334502;22;20073;-69
2022/10/23 02:09:28;;;;;;;4.95;2.28;;;;;;;9.81;100.00;95791.69;6334240;22;20072;-69
2022/10/23 02:12:02;;;;;;;7.80;3.50;;;;;;;9.78;100.00;95788.47;6334808;22;20051;-60
2022/10/23 02:14:33;;;;;;;9.43;5.45;;;;;;;9.91;100.00;95781.19;6334742;22;19998;-66
2022/10/23 02:17:08;;;;;;;7.35;3.40;;;;;;;9.98;100.00;95781.47;6332992;22;20490;-66
2022/10/23 02:20:02;;;;;;;9.27;2.70;;;;;;;9.94;100.00;95778.28;6333984;22;20332;-66
2022/10/23 02:22:37;;;;;;;8.93;1.95;;;;;;;9.95;100.00;95779.13;6333450;22;20011;-66
2022/10/23 02:25:05;;;;;;;2.35;2.10;;;;;;;9.89;100.00;95783.13;6334189;22;20002;-66
2022/10/23 02:27:39;;;;;;;7.75;2.08;;;;;;;9.89;100.00;95785.75;6334101;22;19999;-66
2022/10/23 02:30:07;;;;;;;3.10;2.33;;;;;;;9.88;100.00;95766.50;6334113;22;20003;-66
2022/10/23 02:32:34;;;;;;;8.98;3.28;;;;;;;9.86;100.00;95765.81;6335770;22;20009;-68
2022/10/23 02:35:01;;;;;;;10.77;4.72;;;;;;;9.86;100.00;95765.00;6335990;22;20039;-66
2022/10/23 02:37:26;;;;;;;8.07;3.60;;;;;;;9.83;100.00;95767.88;6336149;22;20437;-65
2022/10/23 02:39:53;;;;;;;7.10;3.70;;;;;;;9.81;100.00;95756.66;6335784;22;20083;-66
2022/10/23 02:42:55;;;;;;;8.60;3.53;;;;;;;9.80;100.00;95757.63;6336041;22;19995;-66
2022/10/23 02:45:31;;;;;;;5.97;2.90;;;;;;;9.81;100.00;95767.19;6335892;22;20003;-65
2022/10/23 02:48:19;;;;;;;4.28;2.60;;;;;;;9.85;100.00;95771.22;6335965;22;19994;-65
2022/10/23 02:51:06;;;;;;;11.25;3.35;;;;;;;9.80;100.00;95779.50;6335821;22;20077;-64
2022/10/23 02:53:52;;;;;;;6.53;2.63;;;;;;;9.77;100.00;95771.03;6336255;22;20017;-69
2022/10/23 02:56:52;;;;;;;8.90;2.75;;;;;;;9.72;100.00;95764.41;6335848;22;20445;-69
2022/10/23 02:59:32;;;;;;;6.70;2.67;;;;;;;9.74;100.00;95767.72;6335730;22;19994;-69
2022/10/23 03:02:08;;;;;;;7.82;2.35;;;;;;;9.64;100.00;95745.84;6336170;22;19998;-69
2022/10/23 03:04:35;;;;;;;5.97;2.55;;;;;;;9.64;100.00;95740.59;6335727;22;19995;-69
2022/10/23 03:07:01;;;;;;;7.47;3.00;;;;;;;9.65;100.00;95744.03;6335583;22;19999;-69
2022/10/23 03:09:26;;;;;;;6.70;2.58;;;;;;;9.64;100.00;95740.59;6335579;22;20330;-59
2022/10/23 03:11:52;;;;;;;2.45;2.25;;;;;;;9.63;100.00;95738.94;6335848;22;20484;-66
2022/10/23 03:14:17;;;;;;;8.63;3.10;;;;;;;9.61;100.00;95727.69;6335561;22;20070;-66
2022/10/23 03:16:42;;;;;;;8.55;2.45;;;;;;;9.64;100.00;95748.47;6335968;22;20317;-66
2022/10/23 03:19:08;;;;;;;5.25;1.95;;;;;;;9.63;100.00;95744.19;6335808;22;19990;-66
2022/10/23 03:21:33;;;;;;;6.78;2.22;;;;;;;9.64;100.00;95745.84;6335254;22;19999;-66
2022/10/23 03:23:59;;;;;;;5.93;2.20;;;;;;;9.73;100.00;95754.72;6335649;22;20033;-66
2022/10/23 03:26:24;;;;;;;6.22;2.58;;;;;;;9.70;100.00;95753.19;6335667;22;20016;-65
2022/10/23 03:28:50;;;;;;;5.82;2.25;;;;;;;9.68;100.00;95747.25;6335642;22;20001;-68
2022/10/23 03:31:15;;;;;;;5.30;2.00;;;;;;;9.92;100.00;95755.72;6335723;22;20006;-68
2022/10/23 03:33:40;;;;;;;6.90;2.60;;;;;;;9.73;100.00;95746.84;6335076;22;20010;-66
2022/10/23 03:36:06;;;;;;;7.72;2.03;;;;;;;9.65;100.00;95742.25;6335763;22;19998;-66
2022/10/23 03:38:31;;;;;;;9.68;2.40;;;;;;;9.60;100.00;95741.81;6335556;22;20026;-66
2022/10/23 03:40:57;;;;;;;3.80;2.00;;;;;;;9.58;100.00;95751.63;6335396;22;19998;-66
2022/10/23 03:43:22;;;;;;;8.85;2.15;;;;;;;9.66;100.00;95748.31;6335454;22;20137;-66
2022/10/23 03:45:47;;;;;;;5.40;2.53;;;;;;;9.72;100.00;95743.38;6335364;22;20338;-66
2022/10/23 03:48:13;;;;;;;5.07;2.20;;;;;;;9.72;100.00;95748.63;6335371;22;20083;-59
2022/10/23 03:50:39;;;;;;;6.53;2.38;;;;;;;9.71;100.00;95746.97;6335428;22;20372;-66
2022/10/23 03:53:04;;;;;;;5.07;2.40;;;;;;;9.73;100.00;95741.59;6335713;22;20073;-64
2022/10/23 03:55:30;;;;;;;8.05;2.50;;;;;;;9.75;100.00;95742.28;6335242;22;19999;-64
2022/10/23 03:57:55;;;;;;;5.47;2.30;;;;;;;9.74;100.00;95746.69;6335140;22;20383;-64
2022/10/23 04:00:21;;;;;;;6.38;2.30;;;;;;;9.78;100.00;95757.78;6335317;22;20003;-64
2022/10/23 04:02:46;;;;;;;6.10;2.42;;;;;;;9.85;100.00;95753.63;6335122;22;19999;-64
2022/10/23 04:05:12;;;;;;;4.90;2.53;;;;;;;9.85;100.00;95752.81;6335144;22;19999;-65
2022/10/23 04:07:38;;;;;;;8.98;2.85;;;;;;;9.86;100.00;95749.22;6335302;22;19998;-59
2022/10/23 04:10:04;;;;;;;3.10;2.80;;;;;;;9.91;100.00;95744.38;6335517;22;19998;-69
2022/10/23 04:12:29;;;;;;;9.77;2.85;;;;;;;9.93;100.00;95738.97;6335067;22;20512;-66
2022/10/23 04:14:55;;;;;;;9.38;3.10;;;;;;;9.96;100.00;95738.72;6335074;22;20030;-66
2022/10/23 04:17:20;;;;;;;7.22;3.25;;;;;;;9.94;100.00;95748.50;6335106;22;20006;-66
2022/10/23 04:19:46;;;;;;;3.85;3.20;;;;;;;9.87;100.00;95729.84;6334947;22;19995;-66
2022/10/23 04:22:11;;;;;;;5.28;3.13;;;;;;;9.87;100.00;95732.47;6334792;22;20056;-66
2022/10/23 04:24:37;;;;;;;4.53;2.70;;;;;;;9.86;100.00;95738.69;6335079;22;20010;-66
2022/10/23 04:27:02;;;;;;;6.32;2.78;;;;;;;9.81;100.00;95740.88;6335081;22;20176;-59
2022/10/23 04:29:30;;;;;;;6.90;2.58;;;;;;;9.81;100.00;95738.25;6333729;22;20076;-65
2022/10/23 04:31:56;;;;;;;5.20;2.38;;;;;;;9.80;100.00;95729.56;6334575;22;20032;-69
2022/10/23 04:34:21;;;;;;;6.50;2.58;;;;;;;9.75;100.00;95727.31;6334812;22;20014;-69
2022/10/23 04:36:46;;;;;;;9.00;2.50;;;;;;;9.70;100.00;95729.53;6334690;22;20048;-69
2022/10/23 04:39:13;;;;;;;6.20;2.40;;;;;;;9.66;100.00;95732.56;6334962;22;20066;-69
2022/10/23 04:41:38;;;;;;;4.55;2.20;;;;;;;9.68;100.00;95739.34;6335199;22;20009;-69
2022/10/23 04:44:04;;;;;;;8.73;2.17;;;;;;;9.66;100.00;95738.66;6334816;22;20208;-69
2022/10/23 04:46:29;;;;;;;3.95;2.40;;;;;;;9.67;100.00;95735.06;6335045;22;20340;-64
2022/10/23 04:48:55;;;;;;;4.97;2.22;;;;;;;9.71;100.00;95743.50;6335116;22;20007;-65
2022/10/23 04:51:20;;;;;;;4.93;3.03;;;;;;;9.69;100.00;95732.28;6334591;22;20049;-65
2022/10/23 04:53:45;;;;;;;5.47;2.45;;;;;;;9.67;100.00;95745.56;6334554;22;20001;-65
2022/10/23 04:56:14;;;;;;;3.67;2.33;;;;;;;9.69;100.00;95748.06;6335255;22;20020;-65
2022/10/23 04:58:39;;;;;;;5.40;2.65;;;;;;;9.70;100.00;95740.03;6334749;22;20005;-64
2022/10/23 05:01:06;;;;;;;9.13;2.67;;;;;;;9.70;100.00;95724.28;6334778;22;20046;-64
2022/10/23 05:03:32;;;;;;;3.92;3.10;;;;;;;9.77;100.00;95731.59;6334547;22;20083;-65
2022/10/23 05:05:58;;;;;;;11.00;2.75;;;;;;;9.80;100.00;95732.19;6334588;22;19994;-69
2022/10/23 05:08:23;;;;;;;19.50;3.05;;;;;;;9.85;100.00;95734.41;6334575;22;20010;-59
2022/10/23 05:10:49;;;;;;;3.28;2.45;;;;;;;9.94;100.00;95730.09;6334671;22;20003;-65
2022/10/23 05:13:18;;;;;;;3.65;2.38;;;;;;;9.92;100.00;95721.53;6334956;22;20440;-65
2022/10/23 05:15:48;;;;;;;3.13;2.47;;;;;;;9.90;100.00;95732.19;6334245;22;20340;-65
2022/10/23 05:18:27;;;;;;;6.82;3.03;;;;;;;10.00;100.00;95735.66;6334798;22;19994;-65
2022/10/23 05:20:59;;;;;;;2.60;2.40;;;;;;;9.96;100.00;95722.94;6334611;22;20337;-65
2022/10/23 05:23:26;;;;;;;6.53;2.95;;;;;;;9.94;100.00;95727.47;6334376;22;20003;-65
2022/10/23 05:25:52;;;;;;;5.38;2.60;;;;;;;10.07;100.00;95717.53;6334816;22;19995;-65
2022/10/23 05:28:17;;;;;;;3.17;2.30;;;;;;;10.25;100.00;95732.63;6334367;22;20014;-68
2022/10/23 05:30:44;;;;;;;2.70;2.20;;;;;;;10.13;100.00;95713.53;6306941;22;20019;-68
2022/10/23 05:33:10;;;;;;;5.57;2.50;;;;;;;10.11;100.00;95720.72;6334575;22;20052;-67
2022/10/23 05:35:37;;;;;;;6.53;2.03;;;;;;;10.19;100.00;95720.84;6334995;22;20464;-67
2022/10/23 05:38:04;;;;;;;7.38;2.75;;;;;;;10.17;100.00;95709.63;6334363;22;20041;-68
2022/10/23 05:40:29;;;;;;;3.45;2.40;;;;;;;10.22;100.00;95725.81;6334411;22;20452;-68
2022/10/23 05:42:55;;;;;;;4.75;2.45;;;;;;;10.19;100.00;95731.38;6334411;22;20041;-68
2022/10/23 05:45:20;;;;;;;10.93;3.30;;;;;;;10.19;100.00;95723.47;6334591;22;20073;-65
2022/10/23 05:47:47;;;;;;;8.93;2.70;;;;;;;10.24;100.00;95726.50;6334515;22;20006;-67
2022/10/23 05:50:13;;;;;;;9.23;2.30;;;;;;;10.34;100.00;95741.50;6334793;22;20029;-66
2022/10/23 05:52:38;;;;;;;10.57;3.20;;;;;;;10.43;100.00;95730.13;6334786;22;19994;-67
2022/10/23 05:55:04;;;;;;;4.13;2.80;;;;;;;10.64;100.00;95731.78;6334381;22;20590;-67
2022/10/23 05:57:33;;;;;;;5.65;2.63;;;;;;;10.52;100.00;95742.47;6334373;22;20006;-68
2022/10/23 05:59:58;;;;;;;6.50;2.53;;;;;;;10.48;100.00;95722.66;6334391;22;20001;-67
2022/10/23 06:02:23;;;;;;;8.88;2.95;;;;;;;10.44;100.00;95737.91;6333971;22;20341;-67
2022/10/23 06:04:49;;;;;;;5.97;2.95;;;;;;;10.45;100.00;95718.50;6334435;22;20379;-66
2022/10/23 06:07:14;;;;;;;8.18;2.47;;;;;;;10.43;100.00;95732.78;6336134;22;20014;-60
2022/10/23 06:09:40;;;;;;;6.20;2.58;;;;;;;10.44;100.00;95723.91;6336609;22;20041;-60
2022/10/23 06:12:05;;;;;;;8.82;2.65;;;;;;;10.46;100.00;95724.59;6336178;22;19999;-60
2022/10/23 06:14:30;;;;;;;8.43;2.70;;;;;;;10.44;100.00;95721.28;6336312;22;20085;-60
2022/10/23 06:16:56;;;;;;;7.00;2.53;;;;;;;10.48;100.00;95722.66;6336167;22;20045;-60
2022/10/23 06:19:21;;;;;;;3.65;2.80;;;;;;;10.42;100.00;95710.06;6336354;22;19991;-60
2022/10/23 06:21:46;;;;;;;5.03;2.60;;;;;;;10.50;100.00;95714.63;6336445;22;20026;-60
2022/10/23 06:24:12;;;;;;;11.00;3.35;;;;;;;10.65;100.00;95725.53;6336670;22;20066;-66
2022/10/23 06:26:37;;;;;;;7.38;2.70;;;;;;;10.55;100.00;95715.03;6336271;22;20022;-60
2022/10/23 06:29:02;;;;;;;8.15;2.88;;;;;;;10.54;100.00;95732.63;6336109;22;20005;-60
2022/10/23 06:31:28;;;;;;;9.93;2.88;;;;;;;10.54;100.00;95721.25;6336005;22;20338;-60
2022/10/23 06:33:55;;;;;;;7.55;3.22;;;;;;;10.66;100.00;95730.69;6335936;22;20034;-60
2022/10/23 06:36:20;;;;;;;9.80;2.95;;;;;;;10.73;100.00;95726.50;6336014;22;20533;-60
2022/10/23 06:38:46;;;;;;;7.93;2.95;;;;;;;10.65;100.00;95728.19;6336579;22;20022;-60
2022/10/23 06:41:17;;;;;;;6.22;2.97;;;;;;;10.61;100.00;95717.13;6336006;22;19999;-65
2022/10/23 06:43:43;;;;;;;9.60;2.78;;;;;;;10.60;100.00;95716.28;6335884;22;20001;-68
2022/10/23 06:46:09;;;;;;;7.20;2.95;;;;;;;10.60;100.00;95728.59;6335605;22;20018;-69
2022/10/23 06:48:35;;;;;;;7.50;2.63;;;;;;;10.64;100.00;95719.47;6336028;22;20006;-69
2022/10/23 06:51:07;;;;;;;6.70;3.08;;;;;;;10.68;100.00;95704.19;6335609;22;20006;-69
2022/10/23 06:53:34;;;;;;;6.90;3.70;;;;;;;10.71;100.00;95702.13;6335914;22;19995;-69
2022/10/23 06:56:00;;;;;;;10.15;6.47;;;;;;;10.71;100.00;95699.47;6335876;22;20464;-68
2022/10/23 06:58:26;;;;;;;14.70;10.95;;;;;;;10.79;100.00;95698.78;6335727;22;19995;-69
2022/10/23 07:00:51;;;;;;;10.93;9.30;;;;;;;10.74;100.00;95701.00;6335962;22;20446;-59
2022/10/23 07:03:17;;;;;;;11.52;4.72;;;;;;;10.78;100.00;95696.25;6335759;22;20005;-66
2022/10/23 07:05:46;;;;;;;6.07;3.17;;;;;;;10.89;100.00;95694.28;6335843;22;20089;-68
2022/10/23 07:08:12;;;;;;;6.13;3.13;;;;;;;10.99;100.00;95719.78;6335462;22;20518;-69
2022/10/23 07:10:41;;;;;;;6.45;3.05;;;;;;;11.01;100.00;95708.09;6335472;22;19994;-69
2022/10/23 07:13:08;;;;;;;7.82;3.42;;;;;;;11.01;100.00;95720.47;6335374;22;20001;-69
2022/10/23 07:15:33;;;;;;;8.43;2.90;;;;;;;11.13;100.00;95708.75;6335509;22;19998;-69
2022/10/23 07:17:59;;;;;;;6.03;2.83;;;;;;;11.18;100.00;95724.97;6335426;22;20424;-69
2022/10/23 07:20:24;;;;;;;5.47;3.33;;;;;;;11.31;100.00;95706.19;6335509;22;19999;-65
2022/10/23 07:22:52;;;;;;;12.60;3.28;;;;;;;11.25;100.00;95709.41;6335994;22;20091;-65
2022/10/23 07:25:17;;;;;;;7.50;3.30;;;;;;;11.39;100.00;95702.84;6335239;22;19998;-67
2022/10/23 07:27:42;;;;;;;9.75;4.25;;;;;;;11.44;100.00;95716.41;6335510;22;20063;-66
2022/10/23 07:30:09;;;;;;;8.20;3.72;;;;;;;11.72;100.00;95703.19;6334659;22;20006;-66
2022/10/23 07:32:34;;;;;;;10.63;3.65;;;;;;;11.78;100.00;95708.84;6334692;22;20064;-66
2022/10/23 07:35:00;;;;;;;3.85;3.17;;;;;;;11.74;100.00;95724.16;6335348;22;20453;-66
2022/10/23 07:37:28;;;;;;;12.07;4.07;;;;;;;11.87;100.00;95710.59;6335600;22;19998;-67
2022/10/23 07:39:53;;;;;;;9.23;3.35;;;;;;;11.84;100.00;95718.81;6335578;22;20017;-67
2022/10/23 07:42:19;;;;;;;12.48;4.72;;;;;;;11.86;100.00;95722.13;6335202;22;19999;-66
2022/10/23 07:44:44;;;;;;;8.20;3.45;;;;;;;11.90;100.00;95718.22;6335342;22;20379;-68
2022/10/23 07:47:09;;;;;;;8.57;3.42;;;;;;;11.99;100.00;95705.94;6335206;22;20066;-69
2022/10/23 07:49:35;;;;;;;5.90;3.78;;;;;;;12.06;100.00;95709.66;6335351;22;20010;-69
2022/10/23 07:52:00;;;;;;;13.10;3.88;;;;;;;12.06;100.00;95703.56;6335316;22;20034;-69
2022/10/23 07:54:25;;;;;;;7.22;3.63;;;;;;;12.17;100.00;95687.47;6335550;22;20060;-69
2022/10/23 07:56:51;;;;;;;9.75;3.10;;;;;;;12.13;100.00;95707.25;6335349;22;20074;-68
2022/10/23 07:59:16;;;;;;;13.60;4.47;;;;;;;12.19;100.00;95693.44;6335203;22;20405;-66
2022/10/23 08:01:42;;;;;;;7.45;4.28;;;;;;;12.32;100.00;95711.53;6335751;22;20071;-67
2022/10/23 08:04:09;;;;;;;8.70;3.22;;;;;;;12.55;100.00;95705.75;6335242;22;20026;-60
2022/10/23 08:06:35;;;;;;;9.00;3.97;;;;;;;12.74;100.00;95699.47;6335512;22;20000;-59
2022/10/23 08:09:00;;;;;;;7.63;3.35;;;;;;;12.80;100.00;95717.31;6334855;22;20063;-60
2022/10/23 08:11:29;;;;;;;14.68;4.13;;;;;;;12.85;100.00;95701.84;6335710;22;19995;-60
2022/10/23 08:13:56;;;;;;;16.95;4.40;;;;;;;12.86;100.00;95708.78;6335643;22;20010;-60
2022/10/23 08:16:22;;;;;;;6.78;3.65;;;;;;;12.97;100.00;95720.09;6335212;22;20029;-59
2022/10/23 08:18:48;;;;;;;6.63;4.10;;;;;;;13.15;100.00;95733.22;6335312;22;19995;-59
2022/10/23 08:21:15;;;;;;;11.80;3.40;;;;;;;13.30;100.00;95723.72;6335060;22;19995;-60
2022/10/23 08:23:40;;;;;;;6.03;3.03;;;;;;;13.40;100.00;95726.25;6334869;22;20002;-59
2022/10/23 08:26:06;;;;;;;9.23;3.55;;;;;;;13.47;100.00;95737.03;6335133;22;19994;-59
2022/10/23 08:28:32;;;;;;;4.30;3.45;;;;;;;13.53;100.00;95717.91;6334384;22;20030;-60
2022/10/23 08:30:57;;;;;;;7.53;3.20;;;;;;;13.38;100.00;95741.44;6335375;22;20006;-59
2022/10/23 08:33:24;;;;;;;8.73;2.63;;;;;;;13.35;100.00;95733.81;6334632;22;20119;-60
2022/10/23 08:35:49;;;;;;;6.05;2.80;;;;;;;13.35;100.00;95728.50;6334977;22;20464;-59
2022/10/23 08:38:15;;;;;;;4.88;2.60;;;;;;;13.37;100.00;95721.25;6334706;22;20025;-65
2022/10/23 08:40:48;;;;;;;4.30;2.70;;;;;;;13.38;100.00;95703.59;6334830;22;19999;-66
2022/10/23 08:43:21;;;;;;;6.78;3.05;;;;;;;13.49;100.00;95727.16;6334654;22;20002;-66
2022/10/23 08:45:49;;;;;;;11.52;2.90;;;;;;;13.60;100.00;95702.22;6335156;22;19999;-65
2022/10/23 08:48:18;;;;;;;6.70;2.97;;;;;;;13.51;100.00;95711.09;6334446;22;20085;-65
2022/10/23 08:50:48;;;;;;;4.55;3.05;;;;;;;13.65;100.00;95691.97;6334777;22;20317;-66
2022/10/23 08:53:28;;;;;;;7.35;3.05;;;;;;;13.46;100.00;95715.06;6334568;22;19998;-66
2022/10/23 08:56:10;;;;;;;7.35;2.83;;;;;;;13.37;100.00;95696.63;6334923;22;20399;-64
2022/10/23 08:58:47;;;;;;;8.20;3.55;;;;;;;13.46;100.00;95695.69;6334769;22;20413;-68
2022/10/23 09:01:34;;;;;;;6.90;3.22;;;;;;;13.37;100.00;95694.00;6334486;22;20002;-65
2022/10/23 09:04:01;;;;;;;4.10;2.85;;;;;;;13.38;100.00;95707.06;6335141;22;20010;-65
2022/10/23 09:06:38;;;;;;;8.05;2.92;;;;;;;13.37;100.00;95702.75;6334587;22;19994;-64
2022/10/23 09:09:24;;;;;;;3.78;2.80;;;;;;;13.47;100.00;95705.28;6334804;22;20385;-64
2022/10/23 09:12:12;;;;;;;6.47;3.05;;;;;;;13.48;100.00;95711.44;6334873;22;20059;-64
2022/10/23 09:14:56;;;;;;;11.05;2.90;;;;;;;13.39;100.00;95721.94;6334595;22;20491;-65
2022/10/23 09:17:26;;;;;;;4.60;2.50;;;;;;;13.40;100.00;95705.09;6334578;22;20064;-61
2022/10/23 09:20:15;;;;;;;9.63;2.65;;;;;;;13.32;100.00;95718.25;6334638;22;20082;-64
2022/10/23 09:22:42;;;;;;;7.80;2.97;;;;;;;13.47;100.00;95710.59;6334800;22;20003;-64
2022/10/23 09:25:09;;;;;;;10.68;3.22;;;;;;;13.45;100.00;95723.97;6334467;22;20025;-65
2022/10/23 09:27:35;;;;;;;7.13;3.30;;;;;;;13.44;100.00;95724.97;6334946;22;20056;-64
2022/10/23 09:30:00;;;;;;;5.25;3.00;;;;;;;13.43;100.00;95719.81;6334754;22;20377;-65
2022/10/23 09:32:37;;;;;;;3.30;2.78;;;;;;;13.37;100.00;95704.56;6334390;22;20010;-65
2022/10/23 09:35:03;;;;;;;10.75;3.17;;;;;;;13.40;100.00;95710.38;6334543;22;20098;-59
2022/10/23 09:37:31;;;;;;;7.25;3.08;;;;;;;13.40;100.00;95726.25;6334625;22;20421;-67
2022/10/23 09:40:15;;;;;;;7.13;3.70;;;;;;;13.52;100.00;95713.59;6306520;22;20380;-67
2022/10/23 09:42:56;;;;;;;11.02;5.25;;;;;;;13.55;100.00;95736.25;6334534;22;20007;-67
2022/10/23 09:45:31;;;;;;;8.27;3.38;;;;;;;13.57;100.00;95737.75;6334512;22;20016;-67
2022/10/23 09:48:26;;;;;;;5.03;3.22;;;;;;;13.87;100.00;95710.88;6334097;22;20017;-67
2022/10/23 09:51:00;;;;;;;8.73;3.40;;;;;;;14.11;100.00;95720.66;6301477;22;20007;-67
2022/10/23 09:53:34;;;;;;;8.38;3.58;;;;;;;14.55;99.13;95730.16;6334436;22;20026;-67
2022/10/23 09:56:33;;;;;;;9.52;3.38;;;;;;;14.77;99.33;95727.84;6334273;22;19995;-66
2022/10/23 09:59:22;;;;;;;9.45;3.83;;;;;;;15.12;94.46;95727.63;6333464;22;20049;-67
2022/10/23 10:02:13;;;;;;;15.55;3.85;;;;;;;15.03;94.50;95717.06;6334319;22;19994;-67
2022/10/23 10:04:40;;;;;;;10.25;4.10;;;;;;;15.96;83.48;95716.53;6317782;22;20041;-67
2022/10/23 10:07:18;;;;;;;10.57;3.80;;;;;;;16.15;85.62;95722.38;6334818;22;20512;-67
2022/10/23 10:09:44;;;;;;;28.92;5.88;;;;;;;17.29;64.89;95721.59;6334576;22;20034;-68
2022/10/23 10:12:25;;;;;;;26.83;6.25;;;;;;;18.37;60.42;95711.38;6334318;22;19994;-67
2022/10/23 10:15:01;;;;;;;28.33;5.35;;;;;;;18.94;60.96;95722.13;6334208;22;20337;-69
2022/10/23 10:17:34;;;;;;;25.52;4.63;;;;;;;19.12;56.81;95743.84;6334147;22;19995;-66
2022/10/23 10:20:17;;;;;;;21.17;4.75;;;;;;;19.21;58.68;95741.81;6334271;22;20131;-67
2022/10/23 10:23:24;;;;;;;7.65;3.85;;;;;;;17.97;74.28;95736.56;6334693;22;20078;-66
2022/10/23 10:25:55;;;;;;;10.38;3.55;;;;;;;17.08;81.46;95734.78;6291417;22;19999;-67
2022/10/23 10:28:47;;;;;;;7.82;4.00;;;;;;;16.48;85.74;95743.41;6333956;22;19999;-67
2022/10/23 10:31:36;;;;;;;8.25;3.53;;;;;;;16.38;87.21;95756.09;6334394;22;20003;-67
2022/10/23 10:34:14;;;;;;;9.05;3.72;;;;;;;16.11;89.42;95751.13;6334300;22;20063;-65
2022/10/23 10:36:51;;;;;;;8.23;3.47;;;;;;;15.96;88.19;95739.59;6334413;22;20003;-65
2022/10/23 10:39:40;;;;;;;9.43;3.67;;;;;;;15.98;89.78;95749.03;6334040;22;20003;-65
2022/10/23 10:42:05;;;;;;;6.47;3.33;;;;;;;16.21;88.19;95764.16;6275714;22;20003;-66
2022/10/23 10:45:00;;;;;;;10.38;3.78;;;;;;;16.10;87.94;95757.44;6333982;22;20071;-65
2022/10/23 10:47:41;;;;;;;8.60;3.40;;;;;;;16.22;89.21;95741.91;6327731;22;20007;-66
2022/10/23 10:50:34;;;;;;;12.82;3.60;;;;;;;16.15;89.09;95751.59;6334316;22;20444;-64
2022/10/23 10:53:02;;;;;;;23.50;4.00;;;;;;;16.65;82.19;95728.16;6335342;22;20068;-68
2022/10/23 10:55:40;;;;;;;24.67;4.82;;;;;;;17.35;76.75;95721.88;6335913;22;20007;-59
2022/10/23 10:58:34;;;;;;;14.75;4.30;;;;;;;17.14;81.41;95729.56;6308394;22;20359;-69
2022/10/23 11:01:01;;;;;;;9.25;3.65;;;;;;;16.96;84.51;95715.75;6335791;22;19998;-69
2022/10/23 11:03:37;;;;;;;8.70;3.80;;;;;;;16.98;86.28;95716.41;6335606;22;19998;-69
2022/10/23 11:06:03;;;;;;;;;;;;;;;17.11;86.20;95713.94;6336454;22;20028;-69
2022/10/23 11:08:40;;;;;;;20.63;6.18;;;;;;;18.58;60.22;95708.72;6335209;22;19906;-69
2022/10/23 11:11:16;;;;;;;24.88;5.55;;;;;;;19.56;55.26;95687.59;6335778;22;20079;-70
2022/10/23 11:13:43;;;;;;;21.35;4.85;;;;;;;20.41;49.17;95670.38;6336037;22;19998;-69
2022/10/23 11:16:18;;;;;;;30.30;5.57;;;;;;;20.91;47.61;95666.53;6335844;22;19995;-64
2022/10/23 11:18:52;;;;;;;25.08;5.78;;;;;;;21.36;44.72;95661.28;6335527;22;20001;-64
2022/10/23 11:21:41;;;;;;;20.50;5.03;;;;;;;21.78;43.30;95660.94;6335489;22;20003;-64
2022/10/23 11:24:38;;;;;;;21.15;5.03;;;;;;;22.06;41.77;95661.63;6335612;22;20032;-64
2022/10/23 11:27:13;;;;;;;22.30;5.70;;;;;;;22.10;42.85;95665.50;6335377;22;20003;-64
2022/10/23 11:30:02;;;;;;;25.60;4.95;;;;;;;22.42;39.45;95657.44;6335627;22;20341;-65
2022/10/23 11:32:39;;;;;;;26.92;5.47;;;;;;;22.54;39.59;95655.75;6335447;22;20006;-69
2022/10/23 11:35:29;;;;;;;23.73;5.57;;;;;;;22.56;39.87;95661.69;6335256;22;20014;-59
2022/10/23 11:38:17;;;;;;;35.60;6.57;;;;;;;22.47;43.15;95660.34;6335278;22;20006;-59
2022/10/23 11:41:17;;;;;;;32.85;5.32;;;;;;;22.58;40.33;95664.97;6335830;22;20436;-59
2022/10/23 11:43:47;;;;;;;18.40;4.03;;;;;;;22.91;38.11;95656.88;6285351;22;20007;-59